<?xml version="1.0" encoding="UTF-8" standalone="no" ?>
<gpx version="1.1" creator="Visorando" xmlns:xsi="http://www.w3.org/2001/XMLSchema-instance" xmlns="http://www.topografix.com/GPX/1/1" xsi:schemaLocation="http://www.topografix.com/GPX/1/1 http://www.topografix.com/GPX/1/1/gpx.xsd">
 <metadata>
  <name>Randonnée du 08/06/2020 à 15:54</name>
  <link href="https://www.visorando.com/randonnee-/3377812">
   <text>https://www.visorando.com/randonnee-/3377812</text>
  </link>
 </metadata>
 <trk>
  <name>Randonnée du 08/06/2020 à 15:54</name>
  <trkseg>
   <trkpt lat="47.85513" lon="6.818978">
    <ele>0</ele>
    <time>2020-06-09T09:53:20+02:00</time>
   </trkpt>
   <trkpt lat="47.855245" lon="6.819279">
    <ele>0</ele>
    <time>2020-06-09T09:53:25+02:00</time>
   </trkpt>
   <trkpt lat="47.855303" lon="6.819622">
    <ele>0</ele>
    <time>2020-06-09T09:53:30+02:00</time>
   </trkpt>
   <trkpt lat="47.855303" lon="6.819965">
    <ele>0</ele>
    <time>2020-06-09T09:53:35+02:00</time>
   </trkpt>
   <trkpt lat="47.855274" lon="6.820523">
    <ele>0</ele>
    <time>2020-06-09T09:53:40+02:00</time>
   </trkpt>
   <trkpt lat="47.85513" lon="6.820995">
    <ele>0</ele>
    <time>2020-06-09T09:53:45+02:00</time>
   </trkpt>
   <trkpt lat="47.855303" lon="6.82151">
    <ele>0</ele>
    <time>2020-06-09T09:53:50+02:00</time>
   </trkpt>
   <trkpt lat="47.855303" lon="6.821897">
    <ele>0</ele>
    <time>2020-06-09T09:53:55+02:00</time>
   </trkpt>
   <trkpt lat="47.855245" lon="6.822412">
    <ele>0</ele>
    <time>2020-06-09T09:54:00+02:00</time>
   </trkpt>
   <trkpt lat="47.855505" lon="6.822712">
    <ele>0</ele>
    <time>2020-06-09T09:54:05+02:00</time>
   </trkpt>
   <trkpt lat="47.855936" lon="6.822884">
    <ele>0</ele>
    <time>2020-06-09T09:54:10+02:00</time>
   </trkpt>
   <trkpt lat="47.856397" lon="6.822841">
    <ele>0</ele>
    <time>2020-06-09T09:54:15+02:00</time>
   </trkpt>
   <trkpt lat="47.856714" lon="6.822969">
    <ele>0</ele>
    <time>2020-06-09T09:54:20+02:00</time>
   </trkpt>
   <trkpt lat="47.85706" lon="6.823656">
    <ele>0</ele>
    <time>2020-06-09T09:54:25+02:00</time>
   </trkpt>
   <trkpt lat="47.857434" lon="6.824472">
    <ele>0</ele>
    <time>2020-06-09T09:54:30+02:00</time>
   </trkpt>
   <trkpt lat="47.857549" lon="6.824901">
    <ele>0</ele>
    <time>2020-06-09T09:54:35+02:00</time>
   </trkpt>
   <trkpt lat="47.857751" lon="6.825501">
    <ele>0</ele>
    <time>2020-06-09T09:54:40+02:00</time>
   </trkpt>
   <trkpt lat="47.858125" lon="6.825931">
    <ele>0</ele>
    <time>2020-06-09T09:54:45+02:00</time>
   </trkpt>
   <trkpt lat="47.858384" lon="6.826446">
    <ele>0</ele>
    <time>2020-06-09T09:54:50+02:00</time>
   </trkpt>
   <trkpt lat="47.85873" lon="6.826832">
    <ele>0</ele>
    <time>2020-06-09T09:54:55+02:00</time>
   </trkpt>
   <trkpt lat="47.858874" lon="6.827004">
    <ele>0</ele>
    <time>2020-06-09T09:55:00+02:00</time>
   </trkpt>
   <trkpt lat="47.858499" lon="6.827776">
    <ele>0</ele>
    <time>2020-06-09T09:55:05+02:00</time>
   </trkpt>
   <trkpt lat="47.858183" lon="6.828548">
    <ele>0</ele>
    <time>2020-06-09T09:55:10+02:00</time>
   </trkpt>
   <trkpt lat="47.857808" lon="6.829621">
    <ele>0</ele>
    <time>2020-06-09T09:55:15+02:00</time>
   </trkpt>
   <trkpt lat="47.857405" lon="6.830608">
    <ele>0</ele>
    <time>2020-06-09T09:55:20+02:00</time>
   </trkpt>
   <trkpt lat="47.856944" lon="6.831553">
    <ele>0</ele>
    <time>2020-06-09T09:55:25+02:00</time>
   </trkpt>
   <trkpt lat="47.856311" lon="6.832497">
    <ele>0</ele>
    <time>2020-06-09T09:55:30+02:00</time>
   </trkpt>
   <trkpt lat="47.855821" lon="6.833183">
    <ele>0</ele>
    <time>2020-06-09T09:55:35+02:00</time>
   </trkpt>
   <trkpt lat="47.855476" lon="6.83387">
    <ele>0</ele>
    <time>2020-06-09T09:55:40+02:00</time>
   </trkpt>
   <trkpt lat="47.854957" lon="6.834428">
    <ele>0</ele>
    <time>2020-06-09T09:55:45+02:00</time>
   </trkpt>
   <trkpt lat="47.854612" lon="6.834771">
    <ele>0</ele>
    <time>2020-06-09T09:55:50+02:00</time>
   </trkpt>
   <trkpt lat="47.854238" lon="6.8349">
    <ele>0</ele>
    <time>2020-06-09T09:55:55+02:00</time>
   </trkpt>
   <trkpt lat="47.854094" lon="6.8349">
    <ele>0</ele>
    <time>2020-06-09T09:56:00+02:00</time>
   </trkpt>
   <trkpt lat="47.853777" lon="6.835501">
    <ele>0</ele>
    <time>2020-06-09T09:56:05+02:00</time>
   </trkpt>
   <trkpt lat="47.853719" lon="6.836059">
    <ele>0</ele>
    <time>2020-06-09T09:56:10+02:00</time>
   </trkpt>
   <trkpt lat="47.85369" lon="6.836359">
    <ele>0</ele>
    <time>2020-06-09T09:56:15+02:00</time>
   </trkpt>
   <trkpt lat="47.853316" lon="6.837346">
    <ele>0</ele>
    <time>2020-06-09T09:56:20+02:00</time>
   </trkpt>
   <trkpt lat="47.852826" lon="6.838977">
    <ele>0</ele>
    <time>2020-06-09T09:56:25+02:00</time>
   </trkpt>
   <trkpt lat="47.852481" lon="6.83902">
    <ele>0</ele>
    <time>2020-06-09T09:56:30+02:00</time>
   </trkpt>
   <trkpt lat="47.851905" lon="6.840093">
    <ele>0</ele>
    <time>2020-06-09T09:56:35+02:00</time>
   </trkpt>
   <trkpt lat="47.851617" lon="6.840822">
    <ele>0</ele>
    <time>2020-06-09T09:56:40+02:00</time>
   </trkpt>
   <trkpt lat="47.851617" lon="6.841466">
    <ele>0</ele>
    <time>2020-06-09T09:56:45+02:00</time>
   </trkpt>
   <trkpt lat="47.851588" lon="6.842367">
    <ele>0</ele>
    <time>2020-06-09T09:56:50+02:00</time>
   </trkpt>
   <trkpt lat="47.851415" lon="6.843311">
    <ele>0</ele>
    <time>2020-06-09T09:56:55+02:00</time>
   </trkpt>
   <trkpt lat="47.851818" lon="6.844813">
    <ele>0</ele>
    <time>2020-06-09T09:57:00+02:00</time>
   </trkpt>
   <trkpt lat="47.851934" lon="6.845328">
    <ele>0</ele>
    <time>2020-06-09T09:57:05+02:00</time>
   </trkpt>
   <trkpt lat="47.851847" lon="6.8458">
    <ele>0</ele>
    <time>2020-06-09T09:57:10+02:00</time>
   </trkpt>
   <trkpt lat="47.851732" lon="6.846487">
    <ele>0</ele>
    <time>2020-06-09T09:57:15+02:00</time>
   </trkpt>
   <trkpt lat="47.851559" lon="6.847002">
    <ele>0</ele>
    <time>2020-06-09T09:57:20+02:00</time>
   </trkpt>
   <trkpt lat="47.851271" lon="6.847302">
    <ele>0</ele>
    <time>2020-06-09T09:57:25+02:00</time>
   </trkpt>
   <trkpt lat="47.851127" lon="6.847517">
    <ele>0</ele>
    <time>2020-06-09T09:57:30+02:00</time>
   </trkpt>
   <trkpt lat="47.850926" lon="6.848204">
    <ele>0</ele>
    <time>2020-06-09T09:57:35+02:00</time>
   </trkpt>
   <trkpt lat="47.850897" lon="6.848847">
    <ele>0</ele>
    <time>2020-06-09T09:57:40+02:00</time>
   </trkpt>
   <trkpt lat="47.850523" lon="6.848933">
    <ele>0</ele>
    <time>2020-06-09T09:57:45+02:00</time>
   </trkpt>
   <trkpt lat="47.850033" lon="6.849491">
    <ele>0</ele>
    <time>2020-06-09T09:57:50+02:00</time>
   </trkpt>
   <trkpt lat="47.84986" lon="6.849491">
    <ele>0</ele>
    <time>2020-06-09T09:57:55+02:00</time>
   </trkpt>
   <trkpt lat="47.84963" lon="6.849834">
    <ele>0</ele>
    <time>2020-06-09T09:58:00+02:00</time>
   </trkpt>
   <trkpt lat="47.849371" lon="6.850221">
    <ele>0</ele>
    <time>2020-06-09T09:58:05+02:00</time>
   </trkpt>
   <trkpt lat="47.848996" lon="6.850607">
    <ele>0</ele>
    <time>2020-06-09T09:58:10+02:00</time>
   </trkpt>
   <trkpt lat="47.848651" lon="6.850993">
    <ele>0</ele>
    <time>2020-06-09T09:58:15+02:00</time>
   </trkpt>
   <trkpt lat="47.848478" lon="6.851208">
    <ele>0</ele>
    <time>2020-06-09T09:58:20+02:00</time>
   </trkpt>
   <trkpt lat="47.848103" lon="6.852066">
    <ele>0</ele>
    <time>2020-06-09T09:58:25+02:00</time>
   </trkpt>
   <trkpt lat="47.847643" lon="6.852538">
    <ele>0</ele>
    <time>2020-06-09T09:58:30+02:00</time>
   </trkpt>
   <trkpt lat="47.847268" lon="6.853354">
    <ele>0</ele>
    <time>2020-06-09T09:58:35+02:00</time>
   </trkpt>
   <trkpt lat="47.847038" lon="6.853697">
    <ele>0</ele>
    <time>2020-06-09T09:58:40+02:00</time>
   </trkpt>
   <trkpt lat="47.84675" lon="6.854598">
    <ele>0</ele>
    <time>2020-06-09T09:58:45+02:00</time>
   </trkpt>
   <trkpt lat="47.846404" lon="6.855413">
    <ele>0</ele>
    <time>2020-06-09T09:58:50+02:00</time>
   </trkpt>
   <trkpt lat="47.84626" lon="6.8558">
    <ele>0</ele>
    <time>2020-06-09T09:58:55+02:00</time>
   </trkpt>
   <trkpt lat="47.845742" lon="6.856014">
    <ele>0</ele>
    <time>2020-06-09T09:59:00+02:00</time>
   </trkpt>
   <trkpt lat="47.845511" lon="6.856315">
    <ele>0</ele>
    <time>2020-06-09T09:59:05+02:00</time>
   </trkpt>
   <trkpt lat="47.84531" lon="6.85683">
    <ele>0</ele>
    <time>2020-06-09T09:59:10+02:00</time>
   </trkpt>
   <trkpt lat="47.844935" lon="6.857345">
    <ele>0</ele>
    <time>2020-06-09T09:59:15+02:00</time>
   </trkpt>
   <trkpt lat="47.844618" lon="6.857516">
    <ele>0</ele>
    <time>2020-06-09T09:59:20+02:00</time>
   </trkpt>
   <trkpt lat="47.844186" lon="6.857817">
    <ele>0</ele>
    <time>2020-06-09T09:59:25+02:00</time>
   </trkpt>
   <trkpt lat="47.843726" lon="6.857945">
    <ele>0</ele>
    <time>2020-06-09T09:59:30+02:00</time>
   </trkpt>
   <trkpt lat="47.843265" lon="6.858375">
    <ele>0</ele>
    <time>2020-06-09T09:59:35+02:00</time>
   </trkpt>
   <trkpt lat="47.842833" lon="6.858632">
    <ele>0</ele>
    <time>2020-06-09T09:59:40+02:00</time>
   </trkpt>
   <trkpt lat="47.842343" lon="6.858847">
    <ele>0</ele>
    <time>2020-06-09T09:59:45+02:00</time>
   </trkpt>
   <trkpt lat="47.841911" lon="6.858804">
    <ele>0</ele>
    <time>2020-06-09T09:59:50+02:00</time>
   </trkpt>
   <trkpt lat="47.841594" lon="6.858718">
    <ele>0</ele>
    <time>2020-06-09T09:59:55+02:00</time>
   </trkpt>
   <trkpt lat="47.840989" lon="6.858804">
    <ele>0</ele>
    <time>2020-06-09T10:00:00+02:00</time>
   </trkpt>
   <trkpt lat="47.840154" lon="6.85889">
    <ele>0</ele>
    <time>2020-06-09T10:00:05+02:00</time>
   </trkpt>
   <trkpt lat="47.839952" lon="6.858718">
    <ele>0</ele>
    <time>2020-06-09T10:00:10+02:00</time>
   </trkpt>
   <trkpt lat="47.839664" lon="6.858975">
    <ele>0</ele>
    <time>2020-06-09T10:00:15+02:00</time>
   </trkpt>
   <trkpt lat="47.84001" lon="6.859533">
    <ele>0</ele>
    <time>2020-06-09T10:00:20+02:00</time>
   </trkpt>
   <trkpt lat="47.840154" lon="6.859877">
    <ele>0</ele>
    <time>2020-06-09T10:00:25+02:00</time>
   </trkpt>
   <trkpt lat="47.840644" lon="6.860263">
    <ele>0</ele>
    <time>2020-06-09T10:00:30+02:00</time>
   </trkpt>
   <trkpt lat="47.841047" lon="6.860692">
    <ele>0</ele>
    <time>2020-06-09T10:00:35+02:00</time>
   </trkpt>
   <trkpt lat="47.841565" lon="6.861078">
    <ele>0</ele>
    <time>2020-06-09T10:00:40+02:00</time>
   </trkpt>
   <trkpt lat="47.841825" lon="6.86155">
    <ele>0</ele>
    <time>2020-06-09T10:00:45+02:00</time>
   </trkpt>
   <trkpt lat="47.842055" lon="6.861937">
    <ele>0</ele>
    <time>2020-06-09T10:00:50+02:00</time>
   </trkpt>
   <trkpt lat="47.842429" lon="6.862108">
    <ele>0</ele>
    <time>2020-06-09T10:00:55+02:00</time>
   </trkpt>
   <trkpt lat="47.842573" lon="6.86258">
    <ele>0</ele>
    <time>2020-06-09T10:01:00+02:00</time>
   </trkpt>
   <trkpt lat="47.842833" lon="6.863482">
    <ele>0</ele>
    <time>2020-06-09T10:01:05+02:00</time>
   </trkpt>
   <trkpt lat="47.843178" lon="6.863868">
    <ele>0</ele>
    <time>2020-06-09T10:01:10+02:00</time>
   </trkpt>
   <trkpt lat="47.843754" lon="6.864254">
    <ele>0</ele>
    <time>2020-06-09T10:01:15+02:00</time>
   </trkpt>
   <trkpt lat="47.844215" lon="6.864597">
    <ele>0</ele>
    <time>2020-06-09T10:01:20+02:00</time>
   </trkpt>
   <trkpt lat="47.844705" lon="6.864898">
    <ele>0</ele>
    <time>2020-06-09T10:01:25+02:00</time>
   </trkpt>
   <trkpt lat="47.844532" lon="6.865284">
    <ele>0</ele>
    <time>2020-06-09T10:01:30+02:00</time>
   </trkpt>
   <trkpt lat="47.844071" lon="6.865756">
    <ele>0</ele>
    <time>2020-06-09T10:01:35+02:00</time>
   </trkpt>
   <trkpt lat="47.843582" lon="6.866056">
    <ele>0</ele>
    <time>2020-06-09T10:01:40+02:00</time>
   </trkpt>
   <trkpt lat="47.843293" lon="6.8664">
    <ele>0</ele>
    <time>2020-06-09T10:01:45+02:00</time>
   </trkpt>
   <trkpt lat="47.843207" lon="6.866915">
    <ele>0</ele>
    <time>2020-06-09T10:01:50+02:00</time>
   </trkpt>
   <trkpt lat="47.842746" lon="6.867644">
    <ele>0</ele>
    <time>2020-06-09T10:01:55+02:00</time>
   </trkpt>
   <trkpt lat="47.842516" lon="6.868159">
    <ele>0</ele>
    <time>2020-06-09T10:02:00+02:00</time>
   </trkpt>
   <trkpt lat="47.842343" lon="6.868717">
    <ele>0</ele>
    <time>2020-06-09T10:02:05+02:00</time>
   </trkpt>
   <trkpt lat="47.842084" lon="6.869404">
    <ele>0</ele>
    <time>2020-06-09T10:02:10+02:00</time>
   </trkpt>
   <trkpt lat="47.842026" lon="6.869962">
    <ele>0</ele>
    <time>2020-06-09T10:02:15+02:00</time>
   </trkpt>
   <trkpt lat="47.842026" lon="6.870262">
    <ele>0</ele>
    <time>2020-06-09T10:02:20+02:00</time>
   </trkpt>
   <trkpt lat="47.842084" lon="6.870648">
    <ele>0</ele>
    <time>2020-06-09T10:02:25+02:00</time>
   </trkpt>
   <trkpt lat="47.842113" lon="6.870992">
    <ele>0</ele>
    <time>2020-06-09T10:02:30+02:00</time>
   </trkpt>
   <trkpt lat="47.842055" lon="6.871678">
    <ele>0</ele>
    <time>2020-06-09T10:02:35+02:00</time>
   </trkpt>
   <trkpt lat="47.842055" lon="6.872322">
    <ele>0</ele>
    <time>2020-06-09T10:02:40+02:00</time>
   </trkpt>
   <trkpt lat="47.842199" lon="6.87288">
    <ele>0</ele>
    <time>2020-06-09T10:02:45+02:00</time>
   </trkpt>
   <trkpt lat="47.842372" lon="6.873138">
    <ele>0</ele>
    <time>2020-06-09T10:02:50+02:00</time>
   </trkpt>
   <trkpt lat="47.842372" lon="6.873567">
    <ele>0</ele>
    <time>2020-06-09T10:02:55+02:00</time>
   </trkpt>
   <trkpt lat="47.842429" lon="6.874425">
    <ele>0</ele>
    <time>2020-06-09T10:03:00+02:00</time>
   </trkpt>
   <trkpt lat="47.84266" lon="6.875412">
    <ele>0</ele>
    <time>2020-06-09T10:03:05+02:00</time>
   </trkpt>
   <trkpt lat="47.842746" lon="6.876313">
    <ele>0</ele>
    <time>2020-06-09T10:03:10+02:00</time>
   </trkpt>
   <trkpt lat="47.842948" lon="6.877172">
    <ele>0</ele>
    <time>2020-06-09T10:03:15+02:00</time>
   </trkpt>
   <trkpt lat="47.843005" lon="6.877472">
    <ele>0</ele>
    <time>2020-06-09T10:03:20+02:00</time>
   </trkpt>
   <trkpt lat="47.842948" lon="6.878116">
    <ele>0</ele>
    <time>2020-06-09T10:03:25+02:00</time>
   </trkpt>
   <trkpt lat="47.842977" lon="6.878674">
    <ele>0</ele>
    <time>2020-06-09T10:03:30+02:00</time>
   </trkpt>
   <trkpt lat="47.843149" lon="6.879317">
    <ele>0</ele>
    <time>2020-06-09T10:03:35+02:00</time>
   </trkpt>
   <trkpt lat="47.84338" lon="6.878631">
    <ele>0</ele>
    <time>2020-06-09T10:03:40+02:00</time>
   </trkpt>
   <trkpt lat="47.843437" lon="6.878116">
    <ele>0</ele>
    <time>2020-06-09T10:03:45+02:00</time>
   </trkpt>
   <trkpt lat="47.843466" lon="6.877772">
    <ele>0</ele>
    <time>2020-06-09T10:03:50+02:00</time>
   </trkpt>
   <trkpt lat="47.84361" lon="6.877214">
    <ele>0</ele>
    <time>2020-06-09T10:03:55+02:00</time>
   </trkpt>
   <trkpt lat="47.843697" lon="6.876399">
    <ele>0</ele>
    <time>2020-06-09T10:04:00+02:00</time>
   </trkpt>
   <trkpt lat="47.843812" lon="6.876142">
    <ele>0</ele>
    <time>2020-06-09T10:04:05+02:00</time>
   </trkpt>
   <trkpt lat="47.844215" lon="6.875627">
    <ele>0</ele>
    <time>2020-06-09T10:04:10+02:00</time>
   </trkpt>
   <trkpt lat="47.84433" lon="6.875369">
    <ele>0</ele>
    <time>2020-06-09T10:04:15+02:00</time>
   </trkpt>
   <trkpt lat="47.844302" lon="6.874725">
    <ele>0</ele>
    <time>2020-06-09T10:04:20+02:00</time>
   </trkpt>
   <trkpt lat="47.8441" lon="6.874082">
    <ele>0</ele>
    <time>2020-06-09T10:04:25+02:00</time>
   </trkpt>
   <trkpt lat="47.8441" lon="6.873524">
    <ele>0</ele>
    <time>2020-06-09T10:04:30+02:00</time>
   </trkpt>
   <trkpt lat="47.844215" lon="6.87288">
    <ele>0</ele>
    <time>2020-06-09T10:04:35+02:00</time>
   </trkpt>
   <trkpt lat="47.844359" lon="6.872236">
    <ele>0</ele>
    <time>2020-06-09T10:04:40+02:00</time>
   </trkpt>
   <trkpt lat="47.844734" lon="6.871507">
    <ele>0</ele>
    <time>2020-06-09T10:04:45+02:00</time>
   </trkpt>
   <trkpt lat="47.845137" lon="6.87052">
    <ele>0</ele>
    <time>2020-06-09T10:04:50+02:00</time>
   </trkpt>
   <trkpt lat="47.845396" lon="6.869618">
    <ele>0</ele>
    <time>2020-06-09T10:04:55+02:00</time>
   </trkpt>
   <trkpt lat="47.845886" lon="6.869576">
    <ele>0</ele>
    <time>2020-06-09T10:05:00+02:00</time>
   </trkpt>
   <trkpt lat="47.846231" lon="6.869747">
    <ele>0</ele>
    <time>2020-06-09T10:05:05+02:00</time>
   </trkpt>
   <trkpt lat="47.846519" lon="6.870176">
    <ele>0</ele>
    <time>2020-06-09T10:05:10+02:00</time>
   </trkpt>
   <trkpt lat="47.846951" lon="6.870563">
    <ele>0</ele>
    <time>2020-06-09T10:05:15+02:00</time>
   </trkpt>
   <trkpt lat="47.847527" lon="6.870906">
    <ele>0</ele>
    <time>2020-06-09T10:05:20+02:00</time>
   </trkpt>
   <trkpt lat="47.84819" lon="6.871163">
    <ele>0</ele>
    <time>2020-06-09T10:05:25+02:00</time>
   </trkpt>
   <trkpt lat="47.84842" lon="6.87155">
    <ele>0</ele>
    <time>2020-06-09T10:05:30+02:00</time>
   </trkpt>
   <trkpt lat="47.848881" lon="6.871979">
    <ele>0</ele>
    <time>2020-06-09T10:05:35+02:00</time>
   </trkpt>
   <trkpt lat="47.849486" lon="6.872623">
    <ele>0</ele>
    <time>2020-06-09T10:05:40+02:00</time>
   </trkpt>
   <trkpt lat="47.849975" lon="6.873138">
    <ele>0</ele>
    <time>2020-06-09T10:05:45+02:00</time>
   </trkpt>
   <trkpt lat="47.850379" lon="6.873481">
    <ele>0</ele>
    <time>2020-06-09T10:05:50+02:00</time>
   </trkpt>
   <trkpt lat="47.850523" lon="6.873824">
    <ele>0</ele>
    <time>2020-06-09T10:05:55+02:00</time>
   </trkpt>
   <trkpt lat="47.850523" lon="6.874253">
    <ele>0</ele>
    <time>2020-06-09T10:06:00+02:00</time>
   </trkpt>
   <trkpt lat="47.850551" lon="6.875026">
    <ele>0</ele>
    <time>2020-06-09T10:06:05+02:00</time>
   </trkpt>
   <trkpt lat="47.850551" lon="6.875326">
    <ele>0</ele>
    <time>2020-06-09T10:06:10+02:00</time>
   </trkpt>
   <trkpt lat="47.851243" lon="6.875584">
    <ele>0</ele>
    <time>2020-06-09T10:06:15+02:00</time>
   </trkpt>
   <trkpt lat="47.851732" lon="6.875798">
    <ele>0</ele>
    <time>2020-06-09T10:06:20+02:00</time>
   </trkpt>
   <trkpt lat="47.851962" lon="6.876399">
    <ele>0</ele>
    <time>2020-06-09T10:06:25+02:00</time>
   </trkpt>
   <trkpt lat="47.852279" lon="6.877257">
    <ele>0</ele>
    <time>2020-06-09T10:06:30+02:00</time>
   </trkpt>
   <trkpt lat="47.852654" lon="6.877386">
    <ele>0</ele>
    <time>2020-06-09T10:06:35+02:00</time>
   </trkpt>
   <trkpt lat="47.853028" lon="6.877">
    <ele>0</ele>
    <time>2020-06-09T10:06:40+02:00</time>
   </trkpt>
   <trkpt lat="47.853575" lon="6.876828">
    <ele>0</ele>
    <time>2020-06-09T10:06:45+02:00</time>
   </trkpt>
   <trkpt lat="47.854209" lon="6.876742">
    <ele>0</ele>
    <time>2020-06-09T10:06:50+02:00</time>
   </trkpt>
   <trkpt lat="47.85513" lon="6.877214">
    <ele>0</ele>
    <time>2020-06-09T10:06:55+02:00</time>
   </trkpt>
   <trkpt lat="47.855562" lon="6.877644">
    <ele>0</ele>
    <time>2020-06-09T10:07:00+02:00</time>
   </trkpt>
   <trkpt lat="47.855649" lon="6.878459">
    <ele>0</ele>
    <time>2020-06-09T10:07:05+02:00</time>
   </trkpt>
   <trkpt lat="47.855821" lon="6.878717">
    <ele>0</ele>
    <time>2020-06-09T10:07:10+02:00</time>
   </trkpt>
   <trkpt lat="47.856167" lon="6.879017">
    <ele>0</ele>
    <time>2020-06-09T10:07:15+02:00</time>
   </trkpt>
   <trkpt lat="47.856829" lon="6.87906">
    <ele>0</ele>
    <time>2020-06-09T10:07:20+02:00</time>
   </trkpt>
   <trkpt lat="47.857117" lon="6.879403">
    <ele>0</ele>
    <time>2020-06-09T10:07:25+02:00</time>
   </trkpt>
   <trkpt lat="47.857635" lon="6.88039">
    <ele>0</ele>
    <time>2020-06-09T10:07:30+02:00</time>
   </trkpt>
   <trkpt lat="47.857895" lon="6.881077">
    <ele>0</ele>
    <time>2020-06-09T10:07:35+02:00</time>
   </trkpt>
   <trkpt lat="47.858269" lon="6.881892">
    <ele>0</ele>
    <time>2020-06-09T10:07:40+02:00</time>
   </trkpt>
   <trkpt lat="47.857923" lon="6.882708">
    <ele>0</ele>
    <time>2020-06-09T10:07:45+02:00</time>
   </trkpt>
   <trkpt lat="47.857779" lon="6.883008">
    <ele>0</ele>
    <time>2020-06-09T10:07:50+02:00</time>
   </trkpt>
   <trkpt lat="47.857981" lon="6.88348">
    <ele>0</ele>
    <time>2020-06-09T10:07:55+02:00</time>
   </trkpt>
   <trkpt lat="47.858327" lon="6.883823">
    <ele>0</ele>
    <time>2020-06-09T10:08:00+02:00</time>
   </trkpt>
   <trkpt lat="47.858499" lon="6.884038">
    <ele>0</ele>
    <time>2020-06-09T10:08:05+02:00</time>
   </trkpt>
   <trkpt lat="47.85873" lon="6.884682">
    <ele>0</ele>
    <time>2020-06-09T10:08:10+02:00</time>
   </trkpt>
   <trkpt lat="47.859018" lon="6.884896">
    <ele>0</ele>
    <time>2020-06-09T10:08:15+02:00</time>
   </trkpt>
   <trkpt lat="47.859277" lon="6.884639">
    <ele>0</ele>
    <time>2020-06-09T10:08:20+02:00</time>
   </trkpt>
   <trkpt lat="47.859795" lon="6.88451">
    <ele>0</ele>
    <time>2020-06-09T10:08:25+02:00</time>
   </trkpt>
   <trkpt lat="47.860169" lon="6.884124">
    <ele>0</ele>
    <time>2020-06-09T10:08:30+02:00</time>
   </trkpt>
   <trkpt lat="47.860774" lon="6.884124">
    <ele>0</ele>
    <time>2020-06-09T10:08:35+02:00</time>
   </trkpt>
   <trkpt lat="47.861379" lon="6.884295">
    <ele>0</ele>
    <time>2020-06-09T10:08:40+02:00</time>
   </trkpt>
   <trkpt lat="47.861724" lon="6.884553">
    <ele>0</ele>
    <time>2020-06-09T10:08:45+02:00</time>
   </trkpt>
   <trkpt lat="47.861724" lon="6.885025">
    <ele>0</ele>
    <time>2020-06-09T10:08:50+02:00</time>
   </trkpt>
   <trkpt lat="47.862098" lon="6.885883">
    <ele>0</ele>
    <time>2020-06-09T10:08:55+02:00</time>
   </trkpt>
   <trkpt lat="47.862127" lon="6.88687">
    <ele>0</ele>
    <time>2020-06-09T10:09:00+02:00</time>
   </trkpt>
   <trkpt lat="47.861983" lon="6.887815">
    <ele>0</ele>
    <time>2020-06-09T10:09:05+02:00</time>
   </trkpt>
   <trkpt lat="47.862098" lon="6.887772">
    <ele>0</ele>
    <time>2020-06-09T10:09:10+02:00</time>
   </trkpt>
   <trkpt lat="47.861868" lon="6.889317">
    <ele>0</ele>
    <time>2020-06-09T10:09:15+02:00</time>
   </trkpt>
   <trkpt lat="47.861638" lon="6.889832">
    <ele>0</ele>
    <time>2020-06-09T10:09:20+02:00</time>
   </trkpt>
   <trkpt lat="47.860947" lon="6.890475">
    <ele>0</ele>
    <time>2020-06-09T10:09:25+02:00</time>
   </trkpt>
   <trkpt lat="47.860572" lon="6.891076">
    <ele>0</ele>
    <time>2020-06-09T10:09:30+02:00</time>
   </trkpt>
   <trkpt lat="47.860141" lon="6.891419">
    <ele>0</ele>
    <time>2020-06-09T10:09:35+02:00</time>
   </trkpt>
   <trkpt lat="47.859881" lon="6.891634">
    <ele>0</ele>
    <time>2020-06-09T10:09:40+02:00</time>
   </trkpt>
   <trkpt lat="47.859565" lon="6.892063">
    <ele>0</ele>
    <time>2020-06-09T10:09:45+02:00</time>
   </trkpt>
   <trkpt lat="47.859392" lon="6.892535">
    <ele>0</ele>
    <time>2020-06-09T10:09:50+02:00</time>
   </trkpt>
   <trkpt lat="47.85919" lon="6.893007">
    <ele>0</ele>
    <time>2020-06-09T10:09:55+02:00</time>
   </trkpt>
   <trkpt lat="47.859162" lon="6.893522">
    <ele>0</ele>
    <time>2020-06-09T10:10:00+02:00</time>
   </trkpt>
   <trkpt lat="47.859248" lon="6.894381">
    <ele>0</ele>
    <time>2020-06-09T10:10:05+02:00</time>
   </trkpt>
   <trkpt lat="47.859565" lon="6.894939">
    <ele>0</ele>
    <time>2020-06-09T10:10:10+02:00</time>
   </trkpt>
   <trkpt lat="47.860054" lon="6.895411">
    <ele>0</ele>
    <time>2020-06-09T10:10:15+02:00</time>
   </trkpt>
   <trkpt lat="47.860141" lon="6.895582">
    <ele>0</ele>
    <time>2020-06-09T10:10:20+02:00</time>
   </trkpt>
   <trkpt lat="47.860141" lon="6.896011">
    <ele>0</ele>
    <time>2020-06-09T10:10:25+02:00</time>
   </trkpt>
   <trkpt lat="47.860141" lon="6.896483">
    <ele>0</ele>
    <time>2020-06-09T10:10:30+02:00</time>
   </trkpt>
   <trkpt lat="47.860054" lon="6.897041">
    <ele>0</ele>
    <time>2020-06-09T10:10:35+02:00</time>
   </trkpt>
   <trkpt lat="47.85991" lon="6.897642">
    <ele>0</ele>
    <time>2020-06-09T10:10:40+02:00</time>
   </trkpt>
   <trkpt lat="47.859881" lon="6.898415">
    <ele>0</ele>
    <time>2020-06-09T10:10:45+02:00</time>
   </trkpt>
   <trkpt lat="47.859997" lon="6.899702">
    <ele>0</ele>
    <time>2020-06-09T10:10:50+02:00</time>
   </trkpt>
   <trkpt lat="47.860112" lon="6.899831">
    <ele>0</ele>
    <time>2020-06-09T10:10:55+02:00</time>
   </trkpt>
   <trkpt lat="47.860313" lon="6.899015">
    <ele>0</ele>
    <time>2020-06-09T10:11:00+02:00</time>
   </trkpt>
   <trkpt lat="47.860601" lon="6.8979">
    <ele>0</ele>
    <time>2020-06-09T10:11:05+02:00</time>
   </trkpt>
   <trkpt lat="47.860947" lon="6.897084">
    <ele>0</ele>
    <time>2020-06-09T10:11:10+02:00</time>
   </trkpt>
   <trkpt lat="47.861206" lon="6.896569">
    <ele>0</ele>
    <time>2020-06-09T10:11:15+02:00</time>
   </trkpt>
   <trkpt lat="47.861523" lon="6.895711">
    <ele>0</ele>
    <time>2020-06-09T10:11:20+02:00</time>
   </trkpt>
   <trkpt lat="47.86158" lon="6.89481">
    <ele>0</ele>
    <time>2020-06-09T10:11:25+02:00</time>
   </trkpt>
   <trkpt lat="47.861494" lon="6.894338">
    <ele>0</ele>
    <time>2020-06-09T10:11:30+02:00</time>
   </trkpt>
   <trkpt lat="47.861868" lon="6.893651">
    <ele>0</ele>
    <time>2020-06-09T10:11:35+02:00</time>
   </trkpt>
   <trkpt lat="47.862127" lon="6.893093">
    <ele>0</ele>
    <time>2020-06-09T10:11:40+02:00</time>
   </trkpt>
   <trkpt lat="47.862502" lon="6.892578">
    <ele>0</ele>
    <time>2020-06-09T10:11:45+02:00</time>
   </trkpt>
   <trkpt lat="47.862818" lon="6.892192">
    <ele>0</ele>
    <time>2020-06-09T10:11:50+02:00</time>
   </trkpt>
   <trkpt lat="47.86302" lon="6.891076">
    <ele>0</ele>
    <time>2020-06-09T10:11:55+02:00</time>
   </trkpt>
   <trkpt lat="47.863308" lon="6.890132">
    <ele>0</ele>
    <time>2020-06-09T10:12:00+02:00</time>
   </trkpt>
   <trkpt lat="47.863509" lon="6.889746">
    <ele>0</ele>
    <time>2020-06-09T10:12:05+02:00</time>
   </trkpt>
   <trkpt lat="47.863855" lon="6.889274">
    <ele>0</ele>
    <time>2020-06-09T10:12:10+02:00</time>
   </trkpt>
   <trkpt lat="47.864056" lon="6.888501">
    <ele>0</ele>
    <time>2020-06-09T10:12:15+02:00</time>
   </trkpt>
   <trkpt lat="47.864172" lon="6.887428">
    <ele>0</ele>
    <time>2020-06-09T10:12:20+02:00</time>
   </trkpt>
   <trkpt lat="47.864344" lon="6.886785">
    <ele>0</ele>
    <time>2020-06-09T10:12:25+02:00</time>
   </trkpt>
   <trkpt lat="47.864315" lon="6.886656">
    <ele>0</ele>
    <time>2020-06-09T10:12:30+02:00</time>
   </trkpt>
   <trkpt lat="47.864315" lon="6.886184">
    <ele>0</ele>
    <time>2020-06-09T10:12:35+02:00</time>
   </trkpt>
   <trkpt lat="47.864459" lon="6.885626">
    <ele>0</ele>
    <time>2020-06-09T10:12:40+02:00</time>
   </trkpt>
   <trkpt lat="47.864373" lon="6.884939">
    <ele>0</ele>
    <time>2020-06-09T10:12:45+02:00</time>
   </trkpt>
   <trkpt lat="47.864229" lon="6.884124">
    <ele>0</ele>
    <time>2020-06-09T10:12:50+02:00</time>
   </trkpt>
   <trkpt lat="47.864056" lon="6.88348">
    <ele>0</ele>
    <time>2020-06-09T10:12:55+02:00</time>
   </trkpt>
   <trkpt lat="47.863711" lon="6.883094">
    <ele>0</ele>
    <time>2020-06-09T10:13:00+02:00</time>
   </trkpt>
   <trkpt lat="47.863624" lon="6.882579">
    <ele>0</ele>
    <time>2020-06-09T10:13:05+02:00</time>
   </trkpt>
   <trkpt lat="47.863423" lon="6.881849">
    <ele>0</ele>
    <time>2020-06-09T10:13:10+02:00</time>
   </trkpt>
   <trkpt lat="47.863337" lon="6.881849">
    <ele>0</ele>
    <time>2020-06-09T10:13:15+02:00</time>
   </trkpt>
   <trkpt lat="47.862991" lon="6.881377">
    <ele>0</ele>
    <time>2020-06-09T10:13:20+02:00</time>
   </trkpt>
   <trkpt lat="47.862617" lon="6.88112">
    <ele>0</ele>
    <time>2020-06-09T10:13:25+02:00</time>
   </trkpt>
   <trkpt lat="47.862127" lon="6.880862">
    <ele>0</ele>
    <time>2020-06-09T10:13:30+02:00</time>
   </trkpt>
   <trkpt lat="47.86158" lon="6.880776">
    <ele>0</ele>
    <time>2020-06-09T10:13:35+02:00</time>
   </trkpt>
   <trkpt lat="47.861379" lon="6.880862">
    <ele>0</ele>
    <time>2020-06-09T10:13:40+02:00</time>
   </trkpt>
   <trkpt lat="47.860947" lon="6.880004">
    <ele>0</ele>
    <time>2020-06-09T10:13:45+02:00</time>
   </trkpt>
   <trkpt lat="47.860832" lon="6.879661">
    <ele>0</ele>
    <time>2020-06-09T10:13:50+02:00</time>
   </trkpt>
   <trkpt lat="47.86063" lon="6.879189">
    <ele>0</ele>
    <time>2020-06-09T10:13:55+02:00</time>
   </trkpt>
   <trkpt lat="47.860285" lon="6.878588">
    <ele>0</ele>
    <time>2020-06-09T10:14:00+02:00</time>
   </trkpt>
   <trkpt lat="47.860198" lon="6.878373">
    <ele>0</ele>
    <time>2020-06-09T10:14:05+02:00</time>
   </trkpt>
   <trkpt lat="47.859939" lon="6.878202">
    <ele>0</ele>
    <time>2020-06-09T10:14:10+02:00</time>
   </trkpt>
   <trkpt lat="47.859737" lon="6.877901">
    <ele>0</ele>
    <time>2020-06-09T10:14:15+02:00</time>
   </trkpt>
   <trkpt lat="47.859449" lon="6.877429">
    <ele>0</ele>
    <time>2020-06-09T10:14:20+02:00</time>
   </trkpt>
   <trkpt lat="47.859248" lon="6.877129">
    <ele>0</ele>
    <time>2020-06-09T10:14:25+02:00</time>
   </trkpt>
   <trkpt lat="47.859018" lon="6.876442">
    <ele>0</ele>
    <time>2020-06-09T10:14:30+02:00</time>
   </trkpt>
   <trkpt lat="47.858787" lon="6.87597">
    <ele>0</ele>
    <time>2020-06-09T10:14:35+02:00</time>
   </trkpt>
   <trkpt lat="47.858557" lon="6.87567">
    <ele>0</ele>
    <time>2020-06-09T10:14:40+02:00</time>
   </trkpt>
   <trkpt lat="47.858355" lon="6.874811">
    <ele>0</ele>
    <time>2020-06-09T10:14:45+02:00</time>
   </trkpt>
   <trkpt lat="47.858154" lon="6.874425">
    <ele>0</ele>
    <time>2020-06-09T10:14:50+02:00</time>
   </trkpt>
   <trkpt lat="47.857779" lon="6.874082">
    <ele>0</ele>
    <time>2020-06-09T10:14:55+02:00</time>
   </trkpt>
   <trkpt lat="47.857779" lon="6.873481">
    <ele>0</ele>
    <time>2020-06-09T10:15:00+02:00</time>
   </trkpt>
   <trkpt lat="47.857779" lon="6.873052">
    <ele>0</ele>
    <time>2020-06-09T10:15:05+02:00</time>
   </trkpt>
   <trkpt lat="47.857693" lon="6.872751">
    <ele>0</ele>
    <time>2020-06-09T10:15:10+02:00</time>
   </trkpt>
   <trkpt lat="47.857376" lon="6.872665">
    <ele>0</ele>
    <time>2020-06-09T10:15:15+02:00</time>
   </trkpt>
   <trkpt lat="47.856916" lon="6.872236">
    <ele>0</ele>
    <time>2020-06-09T10:15:20+02:00</time>
   </trkpt>
   <trkpt lat="47.856656" lon="6.871635">
    <ele>0</ele>
    <time>2020-06-09T10:15:25+02:00</time>
   </trkpt>
   <trkpt lat="47.856167" lon="6.871507">
    <ele>0</ele>
    <time>2020-06-09T10:15:30+02:00</time>
   </trkpt>
   <trkpt lat="47.85585" lon="6.871678">
    <ele>0</ele>
    <time>2020-06-09T10:15:35+02:00</time>
   </trkpt>
   <trkpt lat="47.855476" lon="6.871421">
    <ele>0</ele>
    <time>2020-06-09T10:15:40+02:00</time>
   </trkpt>
   <trkpt lat="47.854353" lon="6.870691">
    <ele>0</ele>
    <time>2020-06-09T10:15:45+02:00</time>
   </trkpt>
   <trkpt lat="47.854094" lon="6.870434">
    <ele>0</ele>
    <time>2020-06-09T10:15:50+02:00</time>
   </trkpt>
   <trkpt lat="47.85395" lon="6.869962">
    <ele>0</ele>
    <time>2020-06-09T10:15:55+02:00</time>
   </trkpt>
   <trkpt lat="47.85369" lon="6.869361">
    <ele>0</ele>
    <time>2020-06-09T10:16:00+02:00</time>
   </trkpt>
   <trkpt lat="47.853633" lon="6.868202">
    <ele>0</ele>
    <time>2020-06-09T10:16:05+02:00</time>
   </trkpt>
   <trkpt lat="47.853402" lon="6.86773">
    <ele>0</ele>
    <time>2020-06-09T10:16:10+02:00</time>
   </trkpt>
   <trkpt lat="47.852942" lon="6.86773">
    <ele>0</ele>
    <time>2020-06-09T10:16:15+02:00</time>
   </trkpt>
   <trkpt lat="47.852394" lon="6.86773">
    <ele>0</ele>
    <time>2020-06-09T10:16:20+02:00</time>
   </trkpt>
   <trkpt lat="47.851934" lon="6.86773">
    <ele>0</ele>
    <time>2020-06-09T10:16:25+02:00</time>
   </trkpt>
   <trkpt lat="47.851559" lon="6.867687">
    <ele>0</ele>
    <time>2020-06-09T10:16:30+02:00</time>
   </trkpt>
   <trkpt lat="47.850955" lon="6.867473">
    <ele>0</ele>
    <time>2020-06-09T10:16:35+02:00</time>
   </trkpt>
   <trkpt lat="47.850523" lon="6.8667">
    <ele>0</ele>
    <time>2020-06-09T10:16:40+02:00</time>
   </trkpt>
   <trkpt lat="47.850407" lon="6.865928">
    <ele>0</ele>
    <time>2020-06-09T10:16:45+02:00</time>
   </trkpt>
   <trkpt lat="47.849716" lon="6.865456">
    <ele>0</ele>
    <time>2020-06-09T10:16:50+02:00</time>
   </trkpt>
   <trkpt lat="47.849543" lon="6.865069">
    <ele>0</ele>
    <time>2020-06-09T10:16:55+02:00</time>
   </trkpt>
   <trkpt lat="47.849025" lon="6.864769">
    <ele>0</ele>
    <time>2020-06-09T10:17:00+02:00</time>
   </trkpt>
   <trkpt lat="47.848737" lon="6.864297">
    <ele>0</ele>
    <time>2020-06-09T10:17:05+02:00</time>
   </trkpt>
   <trkpt lat="47.848564" lon="6.863954">
    <ele>0</ele>
    <time>2020-06-09T10:17:10+02:00</time>
   </trkpt>
   <trkpt lat="47.848247" lon="6.863739">
    <ele>0</ele>
    <time>2020-06-09T10:17:15+02:00</time>
   </trkpt>
   <trkpt lat="47.8477" lon="6.863181">
    <ele>0</ele>
    <time>2020-06-09T10:17:20+02:00</time>
   </trkpt>
   <trkpt lat="47.847499" lon="6.86258">
    <ele>0</ele>
    <time>2020-06-09T10:17:25+02:00</time>
   </trkpt>
   <trkpt lat="47.84747" lon="6.861894">
    <ele>0</ele>
    <time>2020-06-09T10:17:30+02:00</time>
   </trkpt>
   <trkpt lat="47.847153" lon="6.860907">
    <ele>0</ele>
    <time>2020-06-09T10:17:35+02:00</time>
   </trkpt>
   <trkpt lat="47.847124" lon="6.860263">
    <ele>0</ele>
    <time>2020-06-09T10:17:40+02:00</time>
   </trkpt>
   <trkpt lat="47.847412" lon="6.860005">
    <ele>0</ele>
    <time>2020-06-09T10:17:45+02:00</time>
   </trkpt>
   <trkpt lat="47.847758" lon="6.859319">
    <ele>0</ele>
    <time>2020-06-09T10:17:50+02:00</time>
   </trkpt>
   <trkpt lat="47.847787" lon="6.858847">
    <ele>0</ele>
    <time>2020-06-09T10:17:55+02:00</time>
   </trkpt>
   <trkpt lat="47.847931" lon="6.858546">
    <ele>0</ele>
    <time>2020-06-09T10:18:00+02:00</time>
   </trkpt>
   <trkpt lat="47.848247" lon="6.857903">
    <ele>0</ele>
    <time>2020-06-09T10:18:05+02:00</time>
   </trkpt>
   <trkpt lat="47.848593" lon="6.857388">
    <ele>0</ele>
    <time>2020-06-09T10:18:10+02:00</time>
   </trkpt>
   <trkpt lat="47.848593" lon="6.856916">
    <ele>0</ele>
    <time>2020-06-09T10:18:15+02:00</time>
   </trkpt>
   <trkpt lat="47.848564" lon="6.856315">
    <ele>0</ele>
    <time>2020-06-09T10:18:20+02:00</time>
   </trkpt>
   <trkpt lat="47.848564" lon="6.855456">
    <ele>0</ele>
    <time>2020-06-09T10:18:25+02:00</time>
   </trkpt>
   <trkpt lat="47.848881" lon="6.854426">
    <ele>0</ele>
    <time>2020-06-09T10:18:30+02:00</time>
   </trkpt>
   <trkpt lat="47.849313" lon="6.853268">
    <ele>0</ele>
    <time>2020-06-09T10:18:35+02:00</time>
   </trkpt>
   <trkpt lat="47.849601" lon="6.852624">
    <ele>0</ele>
    <time>2020-06-09T10:18:40+02:00</time>
   </trkpt>
   <trkpt lat="47.849428" lon="6.852495">
    <ele>0</ele>
    <time>2020-06-09T10:18:45+02:00</time>
   </trkpt>
   <trkpt lat="47.849918" lon="6.852023">
    <ele>0</ele>
    <time>2020-06-09T10:18:50+02:00</time>
   </trkpt>
   <trkpt lat="47.850235" lon="6.851508">
    <ele>0</ele>
    <time>2020-06-09T10:18:55+02:00</time>
   </trkpt>
   <trkpt lat="47.850955" lon="6.850693">
    <ele>0</ele>
    <time>2020-06-09T10:19:00+02:00</time>
   </trkpt>
   <trkpt lat="47.851444" lon="6.850135">
    <ele>0</ele>
    <time>2020-06-09T10:19:05+02:00</time>
   </trkpt>
   <trkpt lat="47.851876" lon="6.849405">
    <ele>0</ele>
    <time>2020-06-09T10:19:10+02:00</time>
   </trkpt>
   <trkpt lat="47.85225" lon="6.848719">
    <ele>0</ele>
    <time>2020-06-09T10:19:15+02:00</time>
   </trkpt>
   <trkpt lat="47.852654" lon="6.848118">
    <ele>0</ele>
    <time>2020-06-09T10:19:20+02:00</time>
   </trkpt>
   <trkpt lat="47.85297" lon="6.847431">
    <ele>0</ele>
    <time>2020-06-09T10:19:25+02:00</time>
   </trkpt>
   <trkpt lat="47.853374" lon="6.84683">
    <ele>0</ele>
    <time>2020-06-09T10:19:30+02:00</time>
   </trkpt>
   <trkpt lat="47.854065" lon="6.847603">
    <ele>0</ele>
    <time>2020-06-09T10:19:35+02:00</time>
   </trkpt>
   <trkpt lat="47.854497" lon="6.848332">
    <ele>0</ele>
    <time>2020-06-09T10:19:40+02:00</time>
   </trkpt>
   <trkpt lat="47.854986" lon="6.848719">
    <ele>0</ele>
    <time>2020-06-09T10:19:45+02:00</time>
   </trkpt>
   <trkpt lat="47.85585" lon="6.849362">
    <ele>0</ele>
    <time>2020-06-09T10:19:50+02:00</time>
   </trkpt>
   <trkpt lat="47.856109" lon="6.849963">
    <ele>0</ele>
    <time>2020-06-09T10:19:55+02:00</time>
   </trkpt>
   <trkpt lat="47.856858" lon="6.85095">
    <ele>0</ele>
    <time>2020-06-09T10:20:00+02:00</time>
   </trkpt>
   <trkpt lat="47.857232" lon="6.85198">
    <ele>0</ele>
    <time>2020-06-09T10:20:05+02:00</time>
   </trkpt>
   <trkpt lat="47.857434" lon="6.852881">
    <ele>0</ele>
    <time>2020-06-09T10:20:10+02:00</time>
   </trkpt>
   <trkpt lat="47.857751" lon="6.853654">
    <ele>0</ele>
    <time>2020-06-09T10:20:15+02:00</time>
   </trkpt>
   <trkpt lat="47.857751" lon="6.854426">
    <ele>0</ele>
    <time>2020-06-09T10:20:20+02:00</time>
   </trkpt>
   <trkpt lat="47.858096" lon="6.853826">
    <ele>0</ele>
    <time>2020-06-09T10:20:25+02:00</time>
   </trkpt>
   <trkpt lat="47.858327" lon="6.853182">
    <ele>0</ele>
    <time>2020-06-09T10:20:30+02:00</time>
   </trkpt>
   <trkpt lat="47.858269" lon="6.852409">
    <ele>0</ele>
    <time>2020-06-09T10:20:35+02:00</time>
   </trkpt>
   <trkpt lat="47.858269" lon="6.851337">
    <ele>0</ele>
    <time>2020-06-09T10:20:40+02:00</time>
   </trkpt>
   <trkpt lat="47.858384" lon="6.850221">
    <ele>0</ele>
    <time>2020-06-09T10:20:45+02:00</time>
   </trkpt>
   <trkpt lat="47.858355" lon="6.849448">
    <ele>0</ele>
    <time>2020-06-09T10:20:50+02:00</time>
   </trkpt>
   <trkpt lat="47.858327" lon="6.849105">
    <ele>0</ele>
    <time>2020-06-09T10:20:55+02:00</time>
   </trkpt>
   <trkpt lat="47.857664" lon="6.848161">
    <ele>0</ele>
    <time>2020-06-09T10:21:00+02:00</time>
   </trkpt>
   <trkpt lat="47.857347" lon="6.847517">
    <ele>0</ele>
    <time>2020-06-09T10:21:05+02:00</time>
   </trkpt>
   <trkpt lat="47.856829" lon="6.846745">
    <ele>0</ele>
    <time>2020-06-09T10:21:10+02:00</time>
   </trkpt>
   <trkpt lat="47.856599" lon="6.846358">
    <ele>0</ele>
    <time>2020-06-09T10:21:15+02:00</time>
   </trkpt>
   <trkpt lat="47.855735" lon="6.845157">
    <ele>0</ele>
    <time>2020-06-09T10:21:20+02:00</time>
   </trkpt>
   <trkpt lat="47.855936" lon="6.844041">
    <ele>0</ele>
    <time>2020-06-09T10:21:25+02:00</time>
   </trkpt>
   <trkpt lat="47.856311" lon="6.843183">
    <ele>0</ele>
    <time>2020-06-09T10:21:30+02:00</time>
   </trkpt>
   <trkpt lat="47.856541" lon="6.84241">
    <ele>0</ele>
    <time>2020-06-09T10:21:35+02:00</time>
   </trkpt>
   <trkpt lat="47.857204" lon="6.841208">
    <ele>0</ele>
    <time>2020-06-09T10:21:40+02:00</time>
   </trkpt>
   <trkpt lat="47.857895" lon="6.840264">
    <ele>0</ele>
    <time>2020-06-09T10:21:45+02:00</time>
   </trkpt>
   <trkpt lat="47.858269" lon="6.839277">
    <ele>0</ele>
    <time>2020-06-09T10:21:50+02:00</time>
   </trkpt>
   <trkpt lat="47.858528" lon="6.838634">
    <ele>0</ele>
    <time>2020-06-09T10:21:55+02:00</time>
   </trkpt>
   <trkpt lat="47.858845" lon="6.837475">
    <ele>0</ele>
    <time>2020-06-09T10:22:00+02:00</time>
   </trkpt>
   <trkpt lat="47.859536" lon="6.837432">
    <ele>0</ele>
    <time>2020-06-09T10:22:05+02:00</time>
   </trkpt>
   <trkpt lat="47.859939" lon="6.837046">
    <ele>0</ele>
    <time>2020-06-09T10:22:10+02:00</time>
   </trkpt>
   <trkpt lat="47.860198" lon="6.837003">
    <ele>0</ele>
    <time>2020-06-09T10:22:15+02:00</time>
   </trkpt>
   <trkpt lat="47.860601" lon="6.837046">
    <ele>0</ele>
    <time>2020-06-09T10:22:20+02:00</time>
   </trkpt>
   <trkpt lat="47.86063" lon="6.836059">
    <ele>0</ele>
    <time>2020-06-09T10:22:25+02:00</time>
   </trkpt>
   <trkpt lat="47.860774" lon="6.835458">
    <ele>0</ele>
    <time>2020-06-09T10:22:30+02:00</time>
   </trkpt>
   <trkpt lat="47.861091" lon="6.834557">
    <ele>0</ele>
    <time>2020-06-09T10:22:35+02:00</time>
   </trkpt>
   <trkpt lat="47.861091" lon="6.833827">
    <ele>0</ele>
    <time>2020-06-09T10:22:40+02:00</time>
   </trkpt>
   <trkpt lat="47.861148" lon="6.832754">
    <ele>0</ele>
    <time>2020-06-09T10:22:45+02:00</time>
   </trkpt>
   <trkpt lat="47.861033" lon="6.831939">
    <ele>0</ele>
    <time>2020-06-09T10:22:50+02:00</time>
   </trkpt>
   <trkpt lat="47.860947" lon="6.83151">
    <ele>0</ele>
    <time>2020-06-09T10:22:55+02:00</time>
   </trkpt>
   <trkpt lat="47.861292" lon="6.830995">
    <ele>0</ele>
    <time>2020-06-09T10:23:00+02:00</time>
   </trkpt>
   <trkpt lat="47.861062" lon="6.830394">
    <ele>0</ele>
    <time>2020-06-09T10:23:05+02:00</time>
   </trkpt>
   <trkpt lat="47.860659" lon="6.830651">
    <ele>0</ele>
    <time>2020-06-09T10:23:10+02:00</time>
   </trkpt>
   <trkpt lat="47.860515" lon="6.830995">
    <ele>0</ele>
    <time>2020-06-09T10:23:15+02:00</time>
   </trkpt>
   <trkpt lat="47.860428" lon="6.830351">
    <ele>0</ele>
    <time>2020-06-09T10:23:20+02:00</time>
   </trkpt>
   <trkpt lat="47.860486" lon="6.829879">
    <ele>0</ele>
    <time>2020-06-09T10:23:25+02:00</time>
   </trkpt>
   <trkpt lat="47.860716" lon="6.828935">
    <ele>0</ele>
    <time>2020-06-09T10:23:30+02:00</time>
   </trkpt>
   <trkpt lat="47.860515" lon="6.828291">
    <ele>0</ele>
    <time>2020-06-09T10:23:35+02:00</time>
   </trkpt>
   <trkpt lat="47.860313" lon="6.828248">
    <ele>0</ele>
    <time>2020-06-09T10:23:40+02:00</time>
   </trkpt>
   <trkpt lat="47.860141" lon="6.827776">
    <ele>0</ele>
    <time>2020-06-09T10:23:45+02:00</time>
   </trkpt>
   <trkpt lat="47.859766" lon="6.827304">
    <ele>0</ele>
    <time>2020-06-09T10:23:50+02:00</time>
   </trkpt>
   <trkpt lat="47.859507" lon="6.827261">
    <ele>0</ele>
    <time>2020-06-09T10:23:55+02:00</time>
   </trkpt>
   <trkpt lat="47.859219" lon="6.827046">
    <ele>0</ele>
    <time>2020-06-09T10:24:00+02:00</time>
   </trkpt>
   <trkpt lat="47.858758" lon="6.826746">
    <ele>0</ele>
    <time>2020-06-09T10:24:05+02:00</time>
   </trkpt>
   <trkpt lat="47.858298" lon="6.826403">
    <ele>0</ele>
    <time>2020-06-09T10:24:10+02:00</time>
   </trkpt>
   <trkpt lat="47.858067" lon="6.825759">
    <ele>0</ele>
    <time>2020-06-09T10:24:15+02:00</time>
   </trkpt>
   <trkpt lat="47.857837" lon="6.825244">
    <ele>0</ele>
    <time>2020-06-09T10:24:20+02:00</time>
   </trkpt>
   <trkpt lat="47.857549" lon="6.824429">
    <ele>0</ele>
    <time>2020-06-09T10:24:25+02:00</time>
   </trkpt>
   <trkpt lat="47.857146" lon="6.823656">
    <ele>0</ele>
    <time>2020-06-09T10:24:30+02:00</time>
   </trkpt>
   <trkpt lat="47.856714" lon="6.823055">
    <ele>0</ele>
    <time>2020-06-09T10:24:35+02:00</time>
   </trkpt>
   <trkpt lat="47.856224" lon="6.822798">
    <ele>0</ele>
    <time>2020-06-09T10:24:40+02:00</time>
   </trkpt>
   <trkpt lat="47.855591" lon="6.822669">
    <ele>0</ele>
    <time>2020-06-09T10:24:45+02:00</time>
   </trkpt>
   <trkpt lat="47.855274" lon="6.822454">
    <ele>0</ele>
    <time>2020-06-09T10:24:50+02:00</time>
   </trkpt>
   <trkpt lat="47.855361" lon="6.82194">
    <ele>0</ele>
    <time>2020-06-09T10:24:55+02:00</time>
   </trkpt>
   <trkpt lat="47.855332" lon="6.821467">
    <ele>0</ele>
    <time>2020-06-09T10:25:00+02:00</time>
   </trkpt>
   <trkpt lat="47.855188" lon="6.820867">
    <ele>0</ele>
    <time>2020-06-09T10:25:05+02:00</time>
   </trkpt>
   <trkpt lat="47.855245" lon="6.820309">
    <ele>0</ele>
    <time>2020-06-09T10:25:10+02:00</time>
   </trkpt>
   <trkpt lat="47.855245" lon="6.819794">
    <ele>0</ele>
    <time>2020-06-09T10:25:15+02:00</time>
   </trkpt>
   <trkpt lat="47.855188" lon="6.819407">
    <ele>0</ele>
    <time>2020-06-09T10:25:20+02:00</time>
   </trkpt>
   <trkpt lat="47.855073" lon="6.818935">
    <ele>0</ele>
    <time>2020-06-09T10:25:25+02:00</time>
   </trkpt>
  </trkseg>
 </trk></gpx>
